createdAt,value
2018-12-22T00:00:51.099Z,999.9
2018-12-22T00:02:01.900Z,999.9
2018-12-22T00:03:14.097Z,999.9
2018-12-22T00:04:26.284Z,999.8
2018-12-22T00:05:38.435Z,999.8
2018-12-22T00:06:50.667Z,999.9
2018-12-22T00:08:02.799Z,999.9
2018-12-22T00:09:15.078Z,999.9
2018-12-22T00:10:27.299Z,999.9
2018-12-22T00:11:39.460Z,999.9
2018-12-22T00:12:51.650Z,999.9
2018-12-22T00:14:03.831Z,999.8
2018-12-22T00:15:16.026Z,999.9
2018-12-22T00:16:28.155Z,1000
2018-12-22T00:17:40.415Z,999.9
2018-12-22T00:18:52.624Z,1000
2018-12-22T00:20:04.733Z,1000
2018-12-22T00:21:17.019Z,1000
2018-12-22T00:22:29.129Z,999.9
2018-12-22T00:23:41.348Z,1000
2018-12-22T00:24:53.591Z,999.9
2018-12-22T00:26:05.775Z,999.9
2018-12-22T00:27:17.966Z,999.9
2018-12-22T00:28:30.098Z,999.9
2018-12-22T00:29:42.378Z,999.9
2018-12-22T00:30:58.754Z,999.8
2018-12-22T00:32:06.831Z,999.8
2018-12-22T00:33:19.037Z,1000
2018-12-22T00:34:31.061Z,999.9
2018-12-22T00:35:43.438Z,999.9
2018-12-22T00:36:55.600Z,999.9
2018-12-22T00:38:07.651Z,999.9
2018-12-22T00:39:19.846Z,999.9
2018-12-22T00:40:32.025Z,999.9
2018-12-22T00:41:44.378Z,999.9
2018-12-22T00:42:56.412Z,999.8
2018-12-22T00:44:08.682Z,999.9
2018-12-22T00:45:20.873Z,999.8
2018-12-22T00:46:33.098Z,999.9
2018-12-22T00:47:45.282Z,999.8
2018-12-22T00:48:57.383Z,999.9
2018-12-22T00:50:09.577Z,999.9
2018-12-22T00:51:21.863Z,999.9
2018-12-22T00:52:34.034Z,999.9
2018-12-22T00:53:46.299Z,999.9
2018-12-22T00:54:58.351Z,999.8
2018-12-22T00:56:10.618Z,999.9
2018-12-22T00:57:22.916Z,1000
2018-12-22T00:58:35.001Z,1000
2018-12-22T00:59:47.178Z,1000
2018-12-22T01:00:59.388Z,999.9
2018-12-22T01:02:11.516Z,1000
2018-12-22T01:03:23.786Z,999.9
2018-12-22T01:04:35.992Z,999.9
2018-12-22T01:05:48.170Z,999.9
2018-12-22T01:07:00.372Z,999.9
2018-12-22T01:08:12.628Z,1000
2018-12-22T01:09:25.058Z,999.9
2018-12-22T01:10:36.936Z,999.9
2018-12-22T01:11:49.265Z,999.9
2018-12-22T01:13:01.385Z,999.8
2018-12-22T01:14:13.528Z,1000
2018-12-22T01:15:25.645Z,999.9
2018-12-22T01:16:37.921Z,999.9
2018-12-22T01:17:50.110Z,1000
2018-12-22T01:19:02.287Z,1000
2018-12-22T01:20:14.489Z,999.9
2018-12-22T01:21:26.704Z,999.9
2018-12-22T01:22:38.874Z,999.9
2018-12-22T01:23:50.999Z,999.9
2018-12-22T01:25:03.282Z,999.9
2018-12-22T01:26:15.392Z,999.9
2018-12-22T01:27:27.676Z,1000
2018-12-22T01:28:39.877Z,1000
2018-12-22T01:29:52.047Z,999.9
2018-12-22T01:31:04.240Z,1000
2018-12-22T01:32:16.444Z,999.9
2018-12-22T01:33:28.721Z,999.9
2018-12-22T01:34:40.757Z,999.9
2018-12-22T01:35:53.112Z,999.9
2018-12-22T01:37:05.239Z,999.9
2018-12-22T01:38:17.537Z,999.9
2018-12-22T01:39:29.614Z,1000
2018-12-22T01:40:41.737Z,1000
2018-12-22T01:41:53.977Z,1000
2018-12-22T01:43:06.099Z,1000
2018-12-22T01:44:18.372Z,999.9
2018-12-22T01:45:30.561Z,999.8
2018-12-22T01:46:42.757Z,999.7
2018-12-22T01:47:54.975Z,999.6
2018-12-22T01:49:07.063Z,999.6
2018-12-22T01:50:19.347Z,999.6
2018-12-22T01:51:31.462Z,999.6
2018-12-22T01:52:43.723Z,999.7
2018-12-22T01:53:55.858Z,999.7
2018-12-22T01:55:08.038Z,999.7
2018-12-22T01:56:20.319Z,999.7
2018-12-22T01:57:32.465Z,999.8
2018-12-22T01:58:44.811Z,999.8
2018-12-22T01:59:56.889Z,999.7
2018-12-22T02:01:09.217Z,999.7
2018-12-22T02:02:22.489Z,999.8
2018-12-22T02:03:33.395Z,999.8
2018-12-22T02:04:45.656Z,999.8
2018-12-22T02:05:57.901Z,999.7
2018-12-22T02:07:10.048Z,999.7
2018-12-22T02:08:22.250Z,999.7
2018-12-22T02:09:34.428Z,999.7
2018-12-22T02:10:46.571Z,999.7
2018-12-22T02:11:58.830Z,999.7
2018-12-22T02:13:11.188Z,999.8
2018-12-22T02:14:23.218Z,999.8
2018-12-22T02:15:35.422Z,999.7
2018-12-22T02:16:47.550Z,999.7
2018-12-22T02:17:59.789Z,999.8
2018-12-22T02:19:12.007Z,999.7
2018-12-22T02:20:24.214Z,999.7
2018-12-22T02:21:36.297Z,999.7
2018-12-22T02:22:48.558Z,999.7
2018-12-22T02:24:00.809Z,999.7
2018-12-22T02:25:12.968Z,999.7
2018-12-22T02:26:25.075Z,999.6
2018-12-22T02:27:37.335Z,999.6
2018-12-22T02:28:49.466Z,999.6
2018-12-22T02:30:01.654Z,999.6
2018-12-22T02:31:13.936Z,999.4
2018-12-22T02:32:26.048Z,999.4
2018-12-22T02:33:38.326Z,999.4
2018-12-22T02:34:50.517Z,999.4
2018-12-22T02:36:02.736Z,999.4
2018-12-22T02:37:14.857Z,999.5
2018-12-22T02:38:27.106Z,999.4
2018-12-22T02:39:41.011Z,999.4
2018-12-22T02:40:51.395Z,999.3
2018-12-22T02:42:03.773Z,999.3
2018-12-22T02:43:15.790Z,999.4
2018-12-22T02:44:28.897Z,999.4
2018-12-22T02:45:40.245Z,999.4
2018-12-22T02:46:52.367Z,999.4
2018-12-22T02:48:04.673Z,999.5
2018-12-22T02:49:16.847Z,999.4
2018-12-22T02:50:29.073Z,999.4
2018-12-22T02:51:41.239Z,999.3
2018-12-22T02:52:53.399Z,999.4
2018-12-22T02:54:05.525Z,999.4
2018-12-22T02:55:17.851Z,999.3
2018-12-22T02:56:29.988Z,999.4
2018-12-22T02:57:42.198Z,999.3
2018-12-22T02:58:54.396Z,999.4
2018-12-22T03:00:06.496Z,999.3
2018-12-22T03:01:18.686Z,999.3
2018-12-22T03:02:30.885Z,999.3
2018-12-22T03:03:43.197Z,999.3
2018-12-22T03:04:55.274Z,999.2
2018-12-22T03:06:07.543Z,999.2
2018-12-22T03:07:19.664Z,999.2
2018-12-22T03:08:31.919Z,999.2
2018-12-22T03:09:44.039Z,999.2
2018-12-22T03:10:56.449Z,999.2
2018-12-22T03:12:08.431Z,999.2
2018-12-22T03:13:20.635Z,999.1
2018-12-22T03:14:32.882Z,999.1
2018-12-22T03:15:45.006Z,999.1
2018-12-22T03:16:57.286Z,999.1
2018-12-22T03:18:09.486Z,999.2
2018-12-22T03:19:21.693Z,999.2
2018-12-22T03:20:33.879Z,999.1
2018-12-22T03:21:46.088Z,999.1
2018-12-22T03:22:58.173Z,999.1
2018-12-22T03:24:10.550Z,999.1
2018-12-22T03:25:22.577Z,999.1
2018-12-22T03:26:34.747Z,999
2018-12-22T03:27:47.127Z,999
2018-12-22T03:28:59.236Z,999
2018-12-22T03:30:11.435Z,999
2018-12-22T03:31:23.537Z,998.9
2018-12-22T03:32:35.744Z,998.9
2018-12-22T03:33:48.021Z,998.9
2018-12-22T03:35:00.215Z,998.9
2018-12-22T03:36:12.431Z,998.8
2018-12-22T03:37:24.535Z,998.8
2018-12-22T03:38:36.767Z,998.9
2018-12-22T03:39:48.968Z,998.8
2018-12-22T03:41:01.089Z,998.8
2018-12-22T03:42:13.341Z,998.8
2018-12-22T03:43:25.475Z,998.8
2018-12-22T03:44:37.730Z,998.8
2018-12-22T03:45:50.025Z,998.8
2018-12-22T03:47:02.054Z,998.8
2018-12-22T03:48:14.251Z,998.8
2018-12-22T03:49:26.449Z,998.7
2018-12-22T03:50:38.693Z,998.8
2018-12-22T03:51:50.897Z,998.7
2018-12-22T03:53:03.108Z,998.8
2018-12-22T03:54:15.228Z,998.7
2018-12-22T03:55:27.475Z,998.8
2018-12-22T03:56:39.598Z,998.7
2018-12-22T03:57:51.920Z,998.8
2018-12-22T03:59:03.986Z,998.7
2018-12-22T04:00:16.321Z,998.7
2018-12-22T04:01:28.380Z,998.8
2018-12-22T04:02:40.631Z,998.8
2018-12-22T04:03:52.862Z,998.8
2018-12-22T04:05:04.991Z,998.8
2018-12-22T04:06:17.212Z,998.7
2018-12-22T04:07:29.424Z,998.8
2018-12-22T04:08:41.611Z,998.6
2018-12-22T04:09:53.814Z,998.8
2018-12-22T04:11:05.956Z,998.8
2018-12-22T04:12:18.191Z,998.8
2018-12-22T04:13:30.316Z,998.7
2018-12-22T04:14:42.510Z,998.8
2018-12-22T04:15:54.779Z,998.9
2018-12-22T04:17:06.921Z,998.7
2018-12-22T04:18:19.277Z,998.9
2018-12-22T04:19:31.377Z,998.8
2018-12-22T04:20:43.495Z,998.7
2018-12-22T04:21:55.671Z,998.9
2018-12-22T04:23:07.927Z,998.9
2018-12-22T04:24:20.135Z,998.9
2018-12-22T04:25:32.398Z,998.9
2018-12-22T04:26:44.506Z,998.9
2018-12-22T04:27:56.626Z,999
2018-12-22T04:29:08.828Z,999
2018-12-22T04:30:21.115Z,998.9
2018-12-22T04:31:33.283Z,998.9
2018-12-22T04:32:45.412Z,998.8
2018-12-22T04:33:57.693Z,998.8
2018-12-22T04:35:09.798Z,998.8
2018-12-22T04:36:22.020Z,998.9
2018-12-22T04:37:34.232Z,998.8
2018-12-22T04:38:46.371Z,998.9
2018-12-22T04:39:58.681Z,998.8
2018-12-22T04:41:10.760Z,998.8
2018-12-22T04:42:23.022Z,998.7
2018-12-22T04:43:35.215Z,998.7
2018-12-22T04:44:47.496Z,998.9
2018-12-22T04:45:59.557Z,998.8
2018-12-22T04:47:11.792Z,998.9
2018-12-22T04:48:23.936Z,998.9
2018-12-22T04:49:36.258Z,998.9
2018-12-22T04:50:48.319Z,998.9
2018-12-22T04:52:00.591Z,998.9
2018-12-22T04:53:12.699Z,999
2018-12-22T04:54:24.983Z,998.9
2018-12-22T04:55:37.283Z,998.9
2018-12-22T04:56:52.537Z,999
2018-12-22T04:58:01.664Z,998.9
2018-12-22T04:59:13.757Z,998.9
2018-12-22T05:00:25.943Z,998.9
2018-12-22T05:01:38.078Z,999
2018-12-22T05:02:50.261Z,999
2018-12-22T05:04:02.549Z,999.1
2018-12-22T05:05:14.640Z,999.1
2018-12-22T05:06:26.916Z,999.1
2018-12-22T05:07:39.099Z,999.1
2018-12-22T05:08:51.226Z,999.1
2018-12-22T05:10:03.404Z,999
2018-12-22T05:11:15.707Z,999.1
2018-12-22T05:12:27.874Z,999.2
2018-12-22T05:13:40.069Z,999.1
2018-12-22T05:14:52.184Z,999.1
2018-12-22T05:16:04.545Z,999.1
2018-12-22T05:17:16.574Z,999.1
2018-12-22T05:18:28.853Z,998.9
2018-12-22T05:19:41.039Z,999
2018-12-22T05:20:53.232Z,999.1
2018-12-22T05:22:05.512Z,999.1
2018-12-22T05:23:17.537Z,999.1
2018-12-22T05:24:29.758Z,999.1
2018-12-22T05:25:41.989Z,999.1
2018-12-22T05:26:54.193Z,999.1
2018-12-22T05:28:06.382Z,999.1
2018-12-22T05:29:18.502Z,999.1
2018-12-22T05:30:30.872Z,999.1
2018-12-22T05:31:42.887Z,999.1
2018-12-22T05:32:55.192Z,999.2
2018-12-22T05:34:07.368Z,999.1
2018-12-22T05:35:19.560Z,998.9
2018-12-22T05:36:31.674Z,999.2
2018-12-22T05:37:44.031Z,999.3
2018-12-22T05:38:56.127Z,999.2
2018-12-22T05:40:08.243Z,999.1
2018-12-22T05:41:20.436Z,999.2
2018-12-22T05:42:32.708Z,999.1
2018-12-22T05:43:44.966Z,999.1
2018-12-22T05:44:57.148Z,999.2
2018-12-22T05:46:09.381Z,999.3
2018-12-22T05:47:21.409Z,999.2
2018-12-22T05:48:33.606Z,999.3
2018-12-22T05:49:45.880Z,999.3
2018-12-22T05:50:58.082Z,999.3
2018-12-22T05:52:10.262Z,999.4
2018-12-22T05:53:22.381Z,999.4
2018-12-22T05:54:34.733Z,999.4
2018-12-22T05:55:46.763Z,999.4
2018-12-22T05:56:59.059Z,999.4
2018-12-22T05:58:11.247Z,999.5
2018-12-22T05:59:23.424Z,999.4
2018-12-22T06:00:35.546Z,999.4
2018-12-22T06:01:47.738Z,999.4
2018-12-22T06:02:59.996Z,999.4
2018-12-22T06:04:12.194Z,999.5
2018-12-22T06:05:24.440Z,999.5
2018-12-22T06:06:36.522Z,999.4
2018-12-22T06:07:48.813Z,999.6
2018-12-22T06:09:00.975Z,999.6
2018-12-22T06:10:13.299Z,999.7
2018-12-22T06:11:25.310Z,999.6
2018-12-22T06:12:37.485Z,999.7
2018-12-22T06:13:49.692Z,999.8
2018-12-22T06:15:02.639Z,999.8
2018-12-22T06:16:14.145Z,999.8
2018-12-22T06:17:26.400Z,999.6
2018-12-22T06:18:38.474Z,999.7
2018-12-22T06:19:50.753Z,999.8
2018-12-22T06:21:02.887Z,999.9
2018-12-22T06:22:15.229Z,999.9
2018-12-22T06:23:27.323Z,999.9
2018-12-22T06:24:39.451Z,1000
2018-12-22T06:25:51.798Z,1000
2018-12-22T06:27:03.828Z,1000
2018-12-22T06:28:16.091Z,1000
2018-12-22T06:29:28.217Z,1000.1
2018-12-22T06:30:40.617Z,1000
2018-12-22T06:31:52.610Z,1000.2
2018-12-22T06:33:04.890Z,1000.2
2018-12-22T06:34:17.213Z,1000
2018-12-22T06:35:29.357Z,1000.1
2018-12-22T06:36:41.457Z,1000.1
2018-12-22T06:37:53.678Z,1000
2018-12-22T06:39:05.799Z,1000.1
2018-12-22T06:40:17.978Z,1000.2
2018-12-22T06:41:30.243Z,1000.2
2018-12-22T06:42:42.491Z,1000.2
2018-12-22T06:43:54.665Z,1000.2
2018-12-22T06:45:06.827Z,1000.3
2018-12-22T06:46:19.136Z,1000.3
2018-12-22T06:47:31.350Z,1000.4
2018-12-22T06:48:43.343Z,1000.3
2018-12-22T06:49:55.612Z,1000.4
2018-12-22T06:51:07.802Z,1000.5
2018-12-22T06:52:19.999Z,1000.5
2018-12-22T06:53:32.205Z,1000.6
2018-12-22T06:54:44.317Z,1000.5
2018-12-22T06:55:56.613Z,1000.5
2018-12-22T06:57:08.779Z,1000.6
2018-12-22T06:58:21.073Z,1000.8
2018-12-22T06:59:33.096Z,1000.7
2018-12-22T07:00:45.304Z,1000.8
2018-12-22T07:01:57.489Z,1000.8
2018-12-22T07:03:09.694Z,1000.7
2018-12-22T07:04:21.948Z,1000.8
2018-12-22T07:05:34.150Z,1000.8
2018-12-22T07:06:46.366Z,1000.9
2018-12-22T07:07:58.465Z,1000.9
2018-12-22T07:09:10.658Z,1001
2018-12-22T07:10:22.941Z,1001
2018-12-22T07:11:35.054Z,1001
2018-12-22T07:12:47.298Z,1001.1
2018-12-22T07:13:59.600Z,1001.1
2018-12-22T07:15:11.646Z,1001.2
2018-12-22T07:16:23.910Z,1001.1
2018-12-22T07:17:36.025Z,1001.2
2018-12-22T07:18:48.302Z,1001.2
2018-12-22T07:20:00.555Z,1001.3
2018-12-22T07:21:12.681Z,1001.3
2018-12-22T07:22:24.901Z,1001.3
2018-12-22T07:23:37.003Z,1001.3
2018-12-22T07:24:49.272Z,1001.3
2018-12-22T07:26:01.479Z,1001.4
2018-12-22T07:27:13.591Z,1001.4
2018-12-22T07:28:25.856Z,1001.4
2018-12-22T07:29:38.069Z,1001.5
2018-12-22T07:30:51.254Z,1001.4
2018-12-22T07:32:02.487Z,1001.5
2018-12-22T07:33:14.645Z,1001.5
2018-12-22T07:34:26.948Z,1001.5
2018-12-22T07:35:39.019Z,1001.6
2018-12-22T07:36:51.223Z,1001.7
2018-12-22T07:38:03.455Z,1001.6
2018-12-22T07:39:15.622Z,1001.6
2018-12-22T07:40:27.813Z,1001.7
2018-12-22T07:41:39.936Z,1001.6
2018-12-22T07:42:52.199Z,1001.7
2018-12-22T07:44:04.394Z,1001.8
2018-12-22T07:45:16.518Z,1001.7
2018-12-22T07:46:28.795Z,1001.7
2018-12-22T07:47:41.004Z,1001.8
2018-12-22T07:48:53.185Z,1001.8
2018-12-22T07:50:05.307Z,1001.8
2018-12-22T07:51:17.525Z,1002
2018-12-22T07:52:29.705Z,1002
2018-12-22T07:53:41.888Z,1002
2018-12-22T07:54:54.074Z,1002
2018-12-22T07:56:06.352Z,1002
2018-12-22T07:57:18.462Z,1002.1
2018-12-22T07:58:30.777Z,1002.1
2018-12-22T07:59:42.936Z,1002.2
2018-12-22T08:00:55.122Z,1002.3
2018-12-22T08:02:07.247Z,1002.4
2018-12-22T08:03:19.536Z,1002.4
2018-12-22T08:04:31.709Z,1002.4
2018-12-22T08:05:43.902Z,1002.4
2018-12-22T08:06:56.166Z,1002.5
2018-12-22T08:08:08.230Z,1002.5
2018-12-22T08:09:20.503Z,1002.6
2018-12-22T08:10:32.693Z,1002.5
2018-12-22T08:11:44.974Z,1002.6
2018-12-22T08:12:57.009Z,1002.5
2018-12-22T08:14:09.200Z,1002.6
2018-12-22T08:15:21.390Z,1002.7
2018-12-22T08:16:33.671Z,1002.6
2018-12-22T08:17:45.859Z,1002.8
2018-12-22T08:18:58.007Z,1002.9
2018-12-22T08:20:10.244Z,1002.9
2018-12-22T08:21:22.373Z,1002.8
2018-12-22T08:22:34.664Z,1002.9
2018-12-22T08:23:46.857Z,1002.9
2018-12-22T08:24:58.956Z,1003
2018-12-22T08:26:11.152Z,1003
2018-12-22T08:27:23.412Z,1003.1
2018-12-22T08:28:35.629Z,1003.1
2018-12-22T08:29:47.754Z,1003.1
2018-12-22T08:31:00.034Z,1003.1
2018-12-22T08:32:12.215Z,1003.2
2018-12-22T08:33:24.329Z,1003.2
2018-12-22T08:34:36.605Z,1003.1
2018-12-22T08:35:48.711Z,1003.3
2018-12-22T08:37:00.980Z,1003.2
2018-12-22T08:38:13.221Z,1003.4
2018-12-22T08:39:25.366Z,1003.3
2018-12-22T08:41:49.860Z,1003.4
2018-12-22T08:43:01.957Z,1003.5
2018-12-22T08:44:14.089Z,1003.6
2018-12-22T08:45:26.377Z,1003.6
2018-12-22T08:46:38.540Z,1003.8
2018-12-22T08:47:50.666Z,1003.7
2018-12-22T08:49:02.930Z,1003.7
2018-12-22T08:50:15.108Z,1003.7
2018-12-22T08:51:27.385Z,1003.7
2018-12-22T08:52:39.456Z,1003.7
2018-12-22T08:53:51.716Z,1003.9
2018-12-22T08:55:03.841Z,1003.9
2018-12-22T08:56:16.112Z,1003.9
2018-12-22T08:57:28.304Z,1003.9
2018-12-22T08:58:40.501Z,1004
2018-12-22T08:59:52.692Z,1004
2018-12-22T09:01:04.881Z,1004
2018-12-22T09:02:17.092Z,1003.9
2018-12-22T09:03:29.200Z,1004
2018-12-22T09:04:41.397Z,1004.1
2018-12-22T09:05:53.676Z,1004.1
2018-12-22T09:07:05.863Z,1004.2
2018-12-22T09:08:17.978Z,1004.2
2018-12-22T09:09:30.266Z,1004.2
2018-12-22T09:10:42.474Z,1004.3
2018-12-22T09:11:54.649Z,1004.2
2018-12-22T09:13:06.766Z,1004.2
2018-12-22T09:14:18.961Z,1004.3
2018-12-22T09:15:31.253Z,1004.3
2018-12-22T09:16:43.517Z,1004.3
2018-12-22T09:17:55.549Z,1004.4
2018-12-22T09:19:07.830Z,1004.4
2018-12-22T09:20:20.051Z,1004.4
2018-12-22T09:21:32.129Z,1004.4
2018-12-22T09:22:44.414Z,1004.4
2018-12-22T09:23:56.521Z,1004.5
2018-12-22T09:25:08.808Z,1004.5
2018-12-22T09:26:20.924Z,1004.5
2018-12-22T09:27:33.113Z,1004.5
2018-12-22T09:28:45.374Z,1004.5
2018-12-22T09:29:57.614Z,1004.6
2018-12-22T09:31:09.793Z,1004.5
2018-12-22T09:32:21.967Z,1004.6
2018-12-22T09:33:34.085Z,1004.7
2018-12-22T09:34:46.372Z,1004.7
2018-12-22T09:35:58.589Z,1004.6
2018-12-22T09:37:10.670Z,1004.6
2018-12-22T09:38:22.857Z,1004.7
2018-12-22T09:39:35.128Z,1004.8
2018-12-22T09:40:47.363Z,1004.9
2018-12-22T09:41:59.528Z,1004.8
2018-12-22T09:43:11.645Z,1004.8
2018-12-22T09:44:23.925Z,1004.8
2018-12-22T09:45:36.116Z,1004.9
2018-12-22T09:46:48.309Z,1004.8
2018-12-22T09:48:00.497Z,1004.9
2018-12-22T09:49:12.693Z,1004.9
2018-12-22T09:50:24.971Z,1004.9
2018-12-22T09:51:37.006Z,1004.8
2018-12-22T09:52:49.284Z,1004.8
2018-12-22T09:54:01.399Z,1004.9
2018-12-22T09:55:13.612Z,1004.8
2018-12-22T09:56:25.886Z,1005
2018-12-22T09:57:37.978Z,1004.9
2018-12-22T09:58:52.449Z,1004.9
2018-12-22T10:00:02.418Z,1004.9
2018-12-22T10:01:14.566Z,1004.9
2018-12-22T10:02:26.830Z,1004.9
2018-12-22T10:03:38.961Z,1005
2018-12-22T10:04:51.155Z,1004.9
2018-12-22T10:06:03.457Z,1005
2018-12-22T10:07:15.625Z,1005
2018-12-22T10:08:27.833Z,1005
2018-12-22T10:09:39.966Z,1005
2018-12-22T10:10:52.309Z,1005
2018-12-22T10:12:04.421Z,1005.1
2018-12-22T10:13:16.517Z,1005.1
2018-12-22T10:14:28.810Z,1005
2018-12-22T10:15:41.026Z,1005.1
2018-12-22T10:16:53.107Z,1005.1
2018-12-22T10:18:05.387Z,1005.1
2018-12-22T10:19:17.586Z,1005.1
2018-12-22T10:20:29.775Z,1005.1
2018-12-22T10:21:42.129Z,1005.1
2018-12-22T10:22:54.257Z,1005.2
2018-12-22T10:24:06.273Z,1005.2
2018-12-22T10:25:18.541Z,1005.2
2018-12-22T10:26:30.762Z,1005.1
2018-12-22T10:27:42.875Z,1005.2
2018-12-22T10:28:55.152Z,1005.2
2018-12-22T10:30:07.260Z,1005.1
2018-12-22T10:31:19.449Z,1005.2
2018-12-22T10:32:31.735Z,1005.2
2018-12-22T10:33:43.869Z,1005.2
2018-12-22T10:34:56.145Z,1005.2
2018-12-22T10:36:08.310Z,1005.3
2018-12-22T10:37:20.499Z,1005.3
2018-12-22T10:38:32.701Z,1005.4
2018-12-22T10:39:44.891Z,1005.3
2018-12-22T10:40:57.083Z,1005.4
2018-12-22T10:42:09.284Z,1005.3
2018-12-22T10:43:21.493Z,1005.4
2018-12-22T10:44:33.612Z,1005.4
2018-12-22T10:45:45.861Z,1005.4
2018-12-22T10:46:58.052Z,1005.5
2018-12-22T10:48:10.189Z,1005.5
2018-12-22T10:49:22.385Z,1005.4
2018-12-22T10:50:34.642Z,1005.4
2018-12-22T10:51:46.865Z,1005.4
2018-12-22T10:52:59.044Z,1005.3
2018-12-22T10:54:11.249Z,1005.4
2018-12-22T10:55:23.573Z,1005.4
2018-12-22T10:56:35.637Z,1005.4
2018-12-22T10:57:47.833Z,1005.4
2018-12-22T10:59:00.061Z,1005.4
2018-12-22T11:00:12.146Z,1005.5
2018-12-22T11:01:24.436Z,1005.4
2018-12-22T11:02:36.679Z,1005.4
2018-12-22T11:03:48.771Z,1005.4
2018-12-22T11:05:01.030Z,1005.4
2018-12-22T11:06:13.239Z,1005.4
2018-12-22T11:07:25.388Z,1005.4
2018-12-22T11:08:37.581Z,1005.4
2018-12-22T11:09:49.708Z,1005.5
2018-12-22T11:11:04.414Z,1005.5
2018-12-22T11:12:14.097Z,1005.6
2018-12-22T11:13:26.395Z,1005.6
2018-12-22T11:14:38.560Z,1005.6
2018-12-22T11:15:50.745Z,1005.6
2018-12-22T11:17:02.945Z,1005.5
2018-12-22T11:18:15.201Z,1005.6
2018-12-22T11:19:27.336Z,1005.6
2018-12-22T11:20:39.557Z,1005.6
2018-12-22T11:21:51.722Z,1005.6
2018-12-22T11:23:04.038Z,1005.5
2018-12-22T11:24:16.126Z,1005.6
2018-12-22T11:25:28.238Z,1005.6
2018-12-22T11:26:40.606Z,1005.6
2018-12-22T11:27:52.705Z,1005.6
2018-12-22T11:29:05.004Z,1005.6
2018-12-22T11:30:17.106Z,1005.6
2018-12-22T11:31:29.233Z,1005.7
2018-12-22T11:32:41.478Z,1005.6
2018-12-22T11:33:53.619Z,1005.6
2018-12-22T11:35:05.976Z,1005.5
2018-12-22T11:36:18.080Z,1005.6
2018-12-22T11:37:30.286Z,1005.6
2018-12-22T11:38:42.502Z,1005.6
2018-12-22T11:39:54.590Z,1005.7
2018-12-22T11:41:06.780Z,1005.7
2018-12-22T11:42:19.052Z,1005.7
2018-12-22T11:43:31.368Z,1005.7
2018-12-22T11:44:43.437Z,1005.6
2018-12-22T11:45:55.565Z,1005.7
2018-12-22T11:47:07.928Z,1005.8
2018-12-22T11:48:19.976Z,1005.7
2018-12-22T11:49:32.273Z,1005.7
2018-12-22T11:50:44.426Z,1005.8
2018-12-22T11:51:56.647Z,1005.8
2018-12-22T11:53:10.673Z,1005.9
2018-12-22T11:54:21.022Z,1005.8
2018-12-22T11:55:33.136Z,1005.8
2018-12-22T11:56:45.391Z,1005.9
2018-12-22T11:57:57.594Z,1005.9
2018-12-22T11:59:09.879Z,1005.9
2018-12-22T12:00:22.057Z,1005.9
2018-12-22T12:01:34.184Z,1005.9
2018-12-22T12:02:46.417Z,1005.9
2018-12-22T12:03:58.496Z,1005.9
2018-12-22T12:05:10.759Z,1005.9
2018-12-22T12:06:22.885Z,1005.9
2018-12-22T12:07:35.081Z,1006
2018-12-22T12:08:47.381Z,1005.9
2018-12-22T12:09:59.468Z,1006
2018-12-22T12:11:11.756Z,1006
2018-12-22T12:12:23.938Z,1006
2018-12-22T12:13:36.129Z,1006
2018-12-22T12:14:48.327Z,1006
2018-12-22T12:16:00.515Z,1006
2018-12-22T12:17:12.747Z,1006
2018-12-22T12:18:24.950Z,1006.1
2018-12-22T12:19:37.033Z,1006.1
2018-12-22T12:20:49.226Z,1006.1
2018-12-22T12:22:01.530Z,1006.2
2018-12-22T12:23:13.792Z,1006.2
2018-12-22T12:24:25.898Z,1006.2
2018-12-22T12:25:38.085Z,1006.3
2018-12-22T12:26:50.389Z,1006.2
2018-12-22T12:28:02.508Z,1006.2
2018-12-22T12:29:14.690Z,1006.2
2018-12-22T12:30:26.801Z,1006.2
2018-12-22T12:31:39.144Z,1006.2
2018-12-22T12:32:51.255Z,1006.3
2018-12-22T12:34:03.438Z,1006.2
2018-12-22T12:35:15.745Z,1006.3
2018-12-22T12:36:27.774Z,1006.2
2018-12-22T12:37:39.960Z,1006.3
2018-12-22T12:38:52.278Z,1006.3
2018-12-22T12:40:04.448Z,1006.2
2018-12-22T12:41:16.550Z,1006.3
2018-12-22T12:42:28.823Z,1006.3
2018-12-22T12:43:40.947Z,1006.3
2018-12-22T12:44:53.208Z,1006.2
2018-12-22T12:46:05.333Z,1006.3
2018-12-22T12:47:17.704Z,1006.3
2018-12-22T12:48:29.813Z,1006.3
2018-12-22T12:49:42.000Z,1006.4
2018-12-22T12:50:54.115Z,1006.3
2018-12-22T12:52:06.388Z,1006.3
2018-12-22T12:53:18.584Z,1006.3
2018-12-22T12:54:30.818Z,1006.3
2018-12-22T12:55:42.983Z,1006.4
2018-12-22T12:56:55.163Z,1006.5
2018-12-22T12:58:07.340Z,1006.5
2018-12-22T12:59:19.555Z,1006.5
2018-12-22T13:00:31.674Z,1006.5
2018-12-22T13:01:43.949Z,1006.5
2018-12-22T13:02:56.133Z,1006.5
2018-12-22T13:04:08.344Z,1006.6
2018-12-22T13:05:20.630Z,1006.6
2018-12-22T13:06:32.659Z,1006.6
2018-12-22T13:07:44.852Z,1006.6
2018-12-22T13:08:57.063Z,1006.7
2018-12-22T13:10:09.313Z,1006.7
2018-12-22T13:11:21.598Z,1006.6
2018-12-22T13:12:33.699Z,1006.7
2018-12-22T13:13:45.901Z,1006.6
2018-12-22T13:14:58.092Z,1006.6
2018-12-22T13:16:10.302Z,1006.6
2018-12-22T13:17:22.426Z,1006.6
2018-12-22T13:18:34.607Z,1006.6
2018-12-22T13:19:46.889Z,1006.7
2018-12-22T13:20:59.078Z,1006.7
2018-12-22T13:22:11.273Z,1006.7
2018-12-22T13:23:23.481Z,1006.7
2018-12-22T13:24:35.586Z,1006.7
2018-12-22T13:25:47.884Z,1006.8
2018-12-22T13:26:59.980Z,1006.7
2018-12-22T13:28:12.189Z,1006.7
2018-12-22T13:29:24.507Z,1006.7
2018-12-22T13:30:36.562Z,1006.7
2018-12-22T13:31:48.838Z,1006.8
2018-12-22T13:33:01.031Z,1006.7
2018-12-22T13:34:13.216Z,1006.8
2018-12-22T13:35:25.445Z,1006.8
2018-12-22T13:36:37.543Z,1006.8
2018-12-22T13:37:50.491Z,1006.8
2018-12-22T13:39:02.041Z,1006.8
2018-12-22T13:40:14.240Z,1006.8
2018-12-22T13:41:26.358Z,1006.8
2018-12-22T13:42:38.595Z,1006.8
2018-12-22T13:43:50.788Z,1006.9
2018-12-22T13:45:05.316Z,1006.9
2018-12-22T13:46:15.285Z,1006.9
2018-12-22T13:47:27.498Z,1006.9
2018-12-22T13:48:39.705Z,1006.9
2018-12-22T13:49:51.784Z,1006.9
2018-12-22T13:51:03.889Z,1007
2018-12-22T13:52:16.088Z,1007.1
2018-12-22T13:53:28.367Z,1007.1
2018-12-22T13:54:40.470Z,1007.1
2018-12-22T13:55:52.660Z,1007
2018-12-22T13:57:04.944Z,1007.1
2018-12-22T13:58:17.057Z,1007.1
2018-12-22T13:59:29.424Z,1007.1
2018-12-22T14:00:41.478Z,1007.1
2018-12-22T14:01:53.714Z,1007.1
2018-12-22T14:03:05.839Z,1007.1
2018-12-22T14:04:18.029Z,1007.1
2018-12-22T14:05:30.318Z,1007.1
2018-12-22T14:06:42.499Z,1007.1
2018-12-22T14:07:54.627Z,1007.1
2018-12-22T14:09:06.820Z,1007.1
2018-12-22T14:10:19.091Z,1007.1
2018-12-22T14:11:31.453Z,1007.1
2018-12-22T14:12:43.405Z,1007.2
2018-12-22T14:13:55.665Z,1007.2
2018-12-22T14:15:07.797Z,1007.1
2018-12-22T14:16:20.063Z,1007.1
2018-12-22T14:17:32.265Z,1007.1
2018-12-22T14:18:44.453Z,1007
2018-12-22T14:19:56.568Z,1007
2018-12-22T14:21:08.847Z,1007
2018-12-22T14:22:24.461Z,1007.1
2018-12-22T14:23:33.318Z,1007.1
2018-12-22T14:24:45.421Z,1007.1
2018-12-22T14:25:57.538Z,1007.2
2018-12-22T14:27:09.826Z,1007.2
2018-12-22T14:28:21.947Z,1007.3
2018-12-22T14:29:34.326Z,1007.3
2018-12-22T14:30:46.431Z,1007.3
2018-12-22T14:31:58.595Z,1007.5
2018-12-22T14:33:10.796Z,1007.4
2018-12-22T14:34:23.012Z,1007.6
2018-12-22T14:35:35.284Z,1007.5
2018-12-22T14:36:47.412Z,1007.5
2018-12-22T14:37:59.573Z,1007.5
2018-12-22T14:39:11.799Z,1007.6
2018-12-22T14:40:24.140Z,1007.6
2018-12-22T14:41:36.197Z,1007.6
2018-12-22T14:42:49.571Z,1007.6
2018-12-22T14:44:00.637Z,1007.7
2018-12-22T14:45:12.673Z,1007.7
2018-12-22T14:46:24.918Z,1007.7
2018-12-22T14:47:37.143Z,1007.7
2018-12-22T14:48:49.562Z,1007.8
2018-12-22T14:50:01.597Z,1007.7
2018-12-22T14:51:14.805Z,1007.8
2018-12-22T14:52:25.930Z,1007.9
2018-12-22T14:53:38.108Z,1007.8
2018-12-22T14:54:50.312Z,1007.8
2018-12-22T14:56:02.522Z,1007.9
2018-12-22T14:57:14.639Z,1007.9
2018-12-22T14:58:26.888Z,1007.9
2018-12-22T14:59:39.103Z,1007.9
2018-12-22T15:00:51.383Z,1008
2018-12-22T15:02:03.456Z,1008
2018-12-22T15:03:15.695Z,1008
2018-12-22T15:04:27.872Z,1008
2018-12-22T15:05:40.865Z,1008
2018-12-22T15:06:52.269Z,1008
2018-12-22T15:08:04.458Z,1008.1
2018-12-22T15:09:16.657Z,1008
2018-12-22T15:10:31.221Z,1008
2018-12-22T15:11:41.147Z,1008.1
2018-12-22T15:12:53.166Z,1008
2018-12-22T15:14:05.357Z,1008
2018-12-22T15:15:17.650Z,1008.1
2018-12-22T15:16:29.831Z,1008.1
2018-12-22T15:17:42.032Z,1008
2018-12-22T15:18:54.145Z,1008.1
2018-12-22T15:20:06.341Z,1008.1